createdAt,value
2023-05-20T00:01:22.294Z,2.35
2023-05-20T00:03:48.781Z,2.10
2023-05-20T00:06:15.145Z,2.17
2023-05-20T00:08:41.400Z,2.28
2023-05-20T00:11:07.690Z,2.15
2023-05-20T00:13:35.992Z,2.20
2023-05-20T00:16:02.273Z,2.30
2023-05-20T00:18:28.551Z,1.95
2023-05-20T00:20:55.086Z,2.33
2023-05-20T00:23:21.346Z,1.88
2023-05-20T00:25:47.601Z,2.10
2023-05-20T00:28:13.920Z,2.42
2023-05-20T00:30:41.448Z,2.60
2023-05-20T00:33:08.102Z,2.70
2023-05-20T00:35:34.640Z,2.25
2023-05-20T00:38:01.084Z,2.40
2023-05-20T00:40:27.379Z,2.45
2023-05-20T00:42:53.606Z,2.10
2023-05-20T00:45:19.864Z,2.22
2023-05-20T00:47:46.192Z,2.50
2023-05-20T00:50:12.704Z,2.30
2023-05-20T00:52:39.083Z,2.00
2023-05-20T00:55:05.473Z,2.30
2023-05-20T00:57:31.762Z,1.98
2023-05-20T00:59:58.763Z,2.22
2023-05-20T01:02:25.323Z,2.05
2023-05-20T01:04:52.030Z,2.25
2023-05-20T01:07:19.157Z,2.50
2023-05-20T01:09:45.608Z,2.20
2023-05-20T01:12:31.035Z,2.00
2023-05-20T01:15:11.224Z,2.00
2023-05-20T01:17:47.234Z,2.33
2023-05-20T01:20:14.787Z,2.40
2023-05-20T01:22:53.289Z,2.25
2023-05-20T01:25:19.727Z,2.30
2023-05-20T01:27:46.989Z,2.28
2023-05-20T01:30:14.067Z,2.60
2023-05-20T01:32:43.783Z,2.33
2023-05-20T01:35:10.373Z,2.35
2023-05-20T01:37:38.403Z,2.13
2023-05-20T01:40:05.372Z,2.30
2023-05-20T01:42:32.309Z,2.17
2023-05-20T01:44:59.332Z,2.60
2023-05-20T01:47:25.810Z,2.30
2023-05-20T01:49:54.098Z,2.65
2023-05-20T01:52:21.987Z,2.33
2023-05-20T01:54:51.084Z,2.83
2023-05-20T01:57:21.361Z,2.60
2023-05-20T01:59:47.676Z,2.25
2023-05-20T02:02:14.472Z,2.35
2023-05-20T02:04:42.472Z,2.38
2023-05-20T02:07:08.711Z,2.53
2023-05-20T02:09:35.018Z,2.28
2023-05-20T02:12:01.319Z,2.30
2023-05-20T02:14:27.618Z,2.53
2023-05-20T02:16:53.931Z,2.67
2023-05-20T02:19:23.881Z,2.60
2023-05-20T02:21:50.556Z,2.38
2023-05-20T02:24:17.086Z,2.50
2023-05-20T02:26:45.768Z,2.13
2023-05-20T02:29:12.173Z,2.40
2023-05-20T02:31:38.495Z,2.20
2023-05-20T02:34:04.788Z,2.38
2023-05-20T02:36:32.322Z,2.58
2023-05-20T02:38:58.936Z,2.80
2023-05-20T02:41:25.168Z,2.45
2023-05-20T02:43:51.421Z,2.42
2023-05-20T02:46:19.548Z,2.63
2023-05-20T02:48:45.832Z,2.50
2023-05-20T02:51:12.223Z,2.80
2023-05-20T02:53:38.501Z,2.53
2023-05-20T02:56:04.865Z,2.58
2023-05-20T02:58:31.231Z,2.55
2023-05-20T03:00:57.761Z,2.67
2023-05-20T03:03:27.007Z,3.05
2023-05-20T03:05:53.617Z,2.60
2023-05-20T03:08:21.318Z,2.70
2023-05-20T03:10:47.732Z,2.50
2023-05-20T03:13:15.176Z,2.90
2023-05-20T03:15:42.215Z,2.90
2023-05-20T03:18:08.635Z,3.10
2023-05-20T03:20:38.337Z,2.45
2023-05-20T03:23:05.018Z,2.80
2023-05-20T03:25:31.623Z,2.65
2023-05-20T03:28:01.157Z,2.92
2023-05-20T03:30:27.637Z,3.22
2023-05-20T03:32:54.265Z,2.50
2023-05-20T03:35:20.899Z,2.75
2023-05-20T03:37:47.281Z,2.80
2023-05-20T03:40:14.001Z,2.85
2023-05-20T03:42:40.522Z,3.10
2023-05-20T03:45:07.064Z,2.80
2023-05-20T03:47:33.314Z,3.42
2023-05-20T03:49:59.696Z,2.97
2023-05-20T03:52:25.985Z,2.85
2023-05-20T03:54:53.086Z,2.92
2023-05-20T03:57:19.684Z,2.97
2023-05-20T03:59:45.928Z,2.95
2023-05-20T04:02:12.281Z,2.28
2023-05-20T04:04:38.598Z,2.92
2023-05-20T04:07:07.659Z,3.50
2023-05-20T04:09:33.925Z,2.72
2023-05-20T04:12:00.254Z,2.83
2023-05-20T04:14:26.554Z,3.40
2023-05-20T04:16:52.924Z,2.72
2023-05-20T04:19:24.101Z,3.10
2023-05-20T04:21:50.535Z,2.97
2023-05-20T04:24:16.799Z,3.03
2023-05-20T04:26:43.137Z,2.70
2023-05-20T04:29:09.389Z,3.10
2023-05-20T04:31:35.696Z,2.83
2023-05-20T04:34:02.637Z,3.00
2023-05-20T04:36:29.167Z,2.80
2023-05-20T04:38:55.846Z,2.88
2023-05-20T04:41:22.386Z,3.00
2023-05-20T04:43:49.752Z,2.83
2023-05-20T04:46:16.445Z,2.83
2023-05-20T04:48:47.995Z,2.83
2023-05-20T04:53:40.423Z,3.63
2023-05-20T04:56:06.679Z,3.20
2023-05-20T04:58:33.322Z,3.20
2023-05-20T05:00:59.604Z,2.72
2023-05-20T05:03:25.940Z,2.97
2023-05-20T05:05:55.488Z,3.10
2023-05-20T05:08:21.844Z,2.92
2023-05-20T05:10:48.218Z,3.40
2023-05-20T05:13:14.492Z,3.13
2023-05-20T05:15:40.869Z,3.25
2023-05-20T05:18:07.410Z,2.92
2023-05-20T05:20:33.786Z,2.88
2023-05-20T05:23:00.022Z,3.47
2023-05-20T05:25:26.337Z,3.25
2023-05-20T05:27:53.023Z,3.13
2023-05-20T05:30:19.377Z,3.08
2023-05-20T05:32:45.793Z,3.08
2023-05-20T05:35:12.187Z,3.35
2023-05-20T05:37:38.558Z,2.92
2023-05-20T05:40:05.219Z,2.85
2023-05-20T05:42:31.516Z,3.90
2023-05-20T05:44:57.758Z,3.08
2023-05-20T05:47:24.045Z,3.65
2023-05-20T05:49:50.622Z,3.45
2023-05-20T05:52:16.916Z,3.17
2023-05-20T05:54:43.215Z,3.15
2023-05-20T05:57:09.919Z,3.42
2023-05-20T05:59:36.173Z,3.13
2023-05-20T06:02:02.720Z,3.80
2023-05-20T06:04:29.080Z,3.35
2023-05-20T06:06:55.483Z,3.55
2023-05-20T06:09:21.718Z,3.50
2023-05-20T06:11:47.963Z,3.28
2023-05-20T06:14:14.204Z,3.25
2023-05-20T06:16:40.507Z,3.38
2023-05-20T06:19:09.143Z,3.47
2023-05-20T06:21:36.841Z,3.30
2023-05-20T06:24:03.179Z,3.28
2023-05-20T06:26:29.435Z,3.17
2023-05-20T06:28:55.670Z,3.40
2023-05-20T06:31:22.114Z,3.00
2023-05-20T06:33:48.412Z,3.22
2023-05-20T06:36:14.737Z,3.03
2023-05-20T06:38:41.061Z,3.15
2023-05-20T06:41:07.319Z,3.13
2023-05-20T06:43:34.102Z,3.38
2023-05-20T06:46:00.556Z,2.80
2023-05-20T06:48:26.911Z,3.05
2023-05-20T06:50:53.173Z,3.33
2023-05-20T06:53:19.534Z,3.50
2023-05-20T06:55:45.790Z,3.47
2023-05-20T06:58:12.043Z,3.42
2023-05-20T07:00:39.157Z,3.00
2023-05-20T07:03:05.427Z,3.35
2023-05-20T07:05:32.036Z,3.05
2023-05-20T07:07:58.359Z,3.00
2023-05-20T07:10:24.814Z,2.90
2023-05-20T07:12:51.135Z,3.35
2023-05-20T07:15:17.844Z,3.25
2023-05-20T07:17:44.176Z,2.67
2023-05-20T07:20:10.545Z,2.60
2023-05-20T07:22:36.858Z,2.70
2023-05-20T07:25:03.184Z,2.70
2023-05-20T07:27:29.428Z,2.88
2023-05-20T07:29:55.702Z,3.08
2023-05-20T07:32:22.443Z,2.50
2023-05-20T07:34:48.825Z,2.88
2023-05-20T07:37:16.062Z,3.10
2023-05-20T07:39:42.367Z,3.03
2023-05-20T07:42:08.642Z,2.85
2023-05-20T07:44:34.939Z,3.00
2023-05-20T07:47:01.213Z,2.88
2023-05-20T07:49:27.550Z,3.22
2023-05-20T07:51:53.828Z,3.10
2023-05-20T07:54:20.155Z,2.60
2023-05-20T07:56:46.403Z,2.67
2023-05-20T07:59:12.656Z,2.88
2023-05-20T08:01:40.993Z,2.92
2023-05-20T08:04:07.348Z,2.85
2023-05-20T08:06:35.227Z,2.80
2023-05-20T08:09:02.606Z,2.95
2023-05-20T08:11:28.901Z,3.08
2023-05-20T08:13:55.294Z,3.17
2023-05-20T08:16:22.265Z,3.00
2023-05-20T08:18:48.622Z,3.25
2023-05-20T08:21:15.838Z,2.83
2023-05-20T08:23:42.220Z,2.97
2023-05-20T08:26:08.586Z,3.30
2023-05-20T08:28:37.115Z,2.72
2023-05-20T08:31:03.713Z,3.30
2023-05-20T08:33:30.030Z,3.38
2023-05-20T08:35:56.336Z,3.55
2023-05-20T08:38:23.076Z,3.40
2023-05-20T08:40:53.403Z,3.38
2023-05-20T08:43:19.821Z,3.10
2023-05-20T08:45:46.226Z,3.13
2023-05-20T08:48:12.775Z,3.25
2023-05-20T08:50:39.134Z,3.28
2023-05-20T08:53:05.371Z,3.05
2023-05-20T08:55:42.014Z,3.17
2023-05-20T08:58:08.951Z,2.95
2023-05-20T09:00:35.603Z,3.20
2023-05-20T09:03:01.865Z,3.55
2023-05-20T09:05:28.728Z,3.40
2023-05-20T09:08:05.475Z,4.82
2023-05-20T09:10:32.310Z,3.97
2023-05-20T09:12:59.691Z,4.00
2023-05-20T09:15:25.977Z,3.85
2023-05-20T09:17:52.285Z,3.70
2023-05-20T09:20:21.554Z,3.42
2023-05-20T09:22:51.024Z,3.83
2023-05-20T09:25:19.974Z,3.00
2023-05-20T09:27:47.393Z,2.90
2023-05-20T09:30:14.069Z,4.45
2023-05-20T09:32:40.479Z,3.50
2023-05-20T09:35:06.919Z,3.50
2023-05-20T09:37:34.856Z,3.03
2023-05-20T09:40:03.927Z,3.33
2023-05-20T09:42:44.049Z,3.00
2023-05-20T09:45:10.461Z,3.28
2023-05-20T09:47:38.710Z,2.80
2023-05-20T09:50:07.641Z,2.97
2023-05-20T09:52:35.441Z,3.30
2023-05-20T09:55:02.762Z,3.10
2023-05-20T09:57:30.916Z,3.75
2023-05-20T09:59:57.185Z,3.75
2023-05-20T10:02:23.611Z,3.50
2023-05-20T10:04:51.269Z,3.22
2023-05-20T10:07:42.361Z,4.40
2023-05-20T10:10:27.589Z,4.63
2023-05-20T10:13:06.990Z,3.60
2023-05-20T10:15:43.503Z,3.88
2023-05-20T10:18:25.398Z,3.90
2023-05-20T10:20:51.711Z,4.18
2023-05-20T10:23:44.103Z,3.72
2023-05-20T10:26:10.632Z,3.20
2023-05-20T10:28:37.677Z,4.00
2023-05-20T10:31:15.221Z,3.50
2023-05-20T10:33:42.684Z,3.80
2023-05-20T10:36:08.996Z,3.20
2023-05-20T10:38:35.388Z,3.25
2023-05-20T10:41:08.089Z,3.20
2023-05-20T10:43:34.406Z,3.08
2023-05-20T10:46:01.944Z,2.92
2023-05-20T10:48:32.108Z,3.40
2023-05-20T10:51:04.720Z,3.22
2023-05-20T10:53:38.509Z,3.25
2023-05-20T10:56:04.996Z,2.95
2023-05-20T10:58:36.839Z,3.28
2023-05-20T11:01:03.431Z,3.20
2023-05-20T11:03:30.087Z,4.40
2023-05-20T11:05:56.892Z,4.28
2023-05-20T11:08:29.470Z,3.95
2023-05-20T11:10:56.447Z,3.55
2023-05-20T11:13:22.795Z,3.60
2023-05-20T11:15:49.704Z,3.90
2023-05-20T11:18:18.439Z,3.75
2023-05-20T11:20:46.474Z,4.15
2023-05-20T11:23:14.171Z,3.67
2023-05-20T11:25:40.545Z,3.70
2023-05-20T11:28:16.428Z,3.63
2023-05-20T11:30:43.209Z,3.80
2023-05-20T11:33:12.309Z,3.97
2023-05-20T11:35:44.991Z,3.95
2023-05-20T11:38:11.741Z,3.70
2023-05-20T11:40:49.800Z,3.65
2023-05-20T11:43:17.728Z,4.30
2023-05-20T11:46:02.489Z,4.10
2023-05-20T11:48:28.822Z,4.20
2023-05-20T11:50:55.689Z,3.97
2023-05-20T11:53:22.675Z,3.83
2023-05-20T11:55:55.951Z,4.38
2023-05-20T11:58:31.760Z,4.03
2023-05-20T12:01:05.739Z,4.03
2023-05-20T12:03:40.404Z,3.85
2023-05-20T12:06:06.896Z,4.68
2023-05-20T12:08:33.179Z,4.07
2023-05-20T12:10:59.441Z,4.28
2023-05-20T12:13:25.833Z,4.03
2023-05-20T12:15:52.163Z,3.78
2023-05-20T12:18:18.483Z,4.68
2023-05-20T12:20:44.735Z,4.80
2023-05-20T12:23:11.122Z,4.35
2023-05-20T12:25:37.504Z,4.72
2023-05-20T12:28:03.803Z,4.47
2023-05-20T12:30:30.267Z,4.07
2023-05-20T12:32:56.768Z,4.35
2023-05-20T12:35:26.895Z,4.10
2023-05-20T12:37:53.484Z,4.65
2023-05-20T12:40:19.841Z,4.32
2023-05-20T12:42:46.162Z,4.60
2023-05-20T12:45:13.323Z,4.45
2023-05-20T12:47:39.619Z,3.80
2023-05-20T12:50:06.226Z,4.28
2023-05-20T12:52:32.601Z,4.40
2023-05-20T12:54:58.848Z,4.15
2023-05-20T12:57:25.257Z,4.10
2023-05-20T12:59:51.562Z,4.53
2023-05-20T13:02:17.989Z,3.97
2023-05-20T13:04:44.246Z,4.47
2023-05-20T13:07:10.646Z,4.60
2023-05-20T13:09:37.013Z,4.70
2023-05-20T13:12:03.356Z,4.82
2023-05-20T13:14:29.616Z,4.78
2023-05-20T13:16:56.256Z,4.53
2023-05-20T13:19:23.185Z,4.28
2023-05-20T13:21:49.902Z,4.70
2023-05-20T13:24:17.636Z,4.72
2023-05-20T13:26:43.986Z,4.45
2023-05-20T13:29:10.262Z,4.70
2023-05-20T13:31:37.172Z,4.82
2023-05-20T13:34:03.604Z,4.75
2023-05-20T13:36:29.862Z,5.40
2023-05-20T13:38:56.240Z,4.40
2023-05-20T13:41:23.477Z,4.43
2023-05-20T13:43:49.728Z,5.20
2023-05-20T13:46:16.606Z,4.60
2023-05-20T13:48:43.031Z,4.60
2023-05-20T13:51:09.293Z,4.60
2023-05-20T13:53:35.658Z,4.47
2023-05-20T13:56:01.958Z,4.20
2023-05-20T13:58:28.202Z,4.50
2023-05-20T14:00:54.539Z,4.45
2023-05-20T14:03:20.892Z,4.03
2023-05-20T14:05:47.269Z,4.35
2023-05-20T14:08:13.767Z,4.30
2023-05-20T14:10:40.015Z,4.50
2023-05-20T14:13:08.193Z,4.50
2023-05-20T14:15:35.075Z,3.95
2023-05-20T14:18:01.361Z,4.38
2023-05-20T14:20:27.757Z,3.63
2023-05-20T14:22:54.185Z,4.55
2023-05-20T14:25:20.798Z,4.38
2023-05-20T14:27:47.110Z,4.07
2023-05-20T14:30:13.361Z,4.90
2023-05-20T14:32:40.267Z,4.55
2023-05-20T14:35:06.893Z,4.60
2023-05-20T14:37:33.239Z,6.22
2023-05-20T14:40:00.129Z,5.60
2023-05-20T14:42:26.457Z,4.75
2023-05-20T14:44:52.768Z,4.32
2023-05-20T14:47:21.969Z,4.40
2023-05-20T14:49:49.883Z,4.72
2023-05-20T14:52:17.277Z,4.32
2023-05-20T14:54:43.730Z,4.60
2023-05-20T14:57:10.131Z,4.43
2023-05-20T14:59:36.617Z,4.47
2023-05-20T15:02:03.070Z,4.13
2023-05-20T15:04:29.874Z,4.40
2023-05-20T15:06:56.175Z,4.57
2023-05-20T15:09:22.569Z,4.95
2023-05-20T15:11:48.909Z,4.45
2023-05-20T15:14:15.270Z,4.10
2023-05-20T15:16:41.913Z,4.45
2023-05-20T15:19:08.262Z,4.10
2023-05-20T15:21:34.573Z,4.57
2023-05-20T15:24:01.254Z,4.53
2023-05-20T15:26:30.252Z,4.57
2023-05-20T15:28:56.484Z,4.55
2023-05-20T15:31:22.817Z,4.45
2023-05-20T15:33:49.214Z,4.50
2023-05-20T15:36:15.663Z,4.55
2023-05-20T15:38:42.271Z,4.70
2023-05-20T15:41:12.195Z,4.70
2023-05-20T15:43:38.429Z,4.18
2023-05-20T15:46:04.761Z,4.40
2023-05-20T15:48:31.029Z,3.53
2023-05-20T15:50:57.409Z,4.15
2023-05-20T15:53:23.703Z,4.30
2023-05-20T15:55:51.468Z,4.43
2023-05-20T15:58:17.738Z,4.18
2023-05-20T16:00:44.025Z,4.15
2023-05-20T16:03:11.310Z,4.07
2023-05-20T16:05:38.855Z,4.85
2023-05-20T16:08:05.790Z,4.82
2023-05-20T16:10:34.458Z,4.28
2023-05-20T16:13:01.233Z,4.50
2023-05-20T16:15:27.795Z,4.20
2023-05-20T16:17:54.254Z,4.20
2023-05-20T16:20:20.640Z,5.03
2023-05-20T16:22:46.883Z,4.50
2023-05-20T16:25:14.068Z,4.10
2023-05-20T16:27:40.323Z,4.07
2023-05-20T16:30:07.333Z,4.72
2023-05-20T16:32:33.660Z,4.18
2023-05-20T16:35:01.498Z,5.00
2023-05-20T16:37:27.990Z,4.65
2023-05-20T16:39:54.225Z,4.38
2023-05-20T16:42:20.575Z,4.78
2023-05-20T16:44:49.045Z,4.78
2023-05-20T16:47:15.542Z,4.63
2023-05-20T16:49:41.791Z,4.70
2023-05-20T16:52:08.137Z,4.40
2023-05-20T16:54:37.141Z,4.35
2023-05-20T16:57:03.956Z,4.93
2023-05-20T16:59:30.683Z,4.80
2023-05-20T17:01:57.032Z,4.88
2023-05-20T17:04:23.759Z,4.75
2023-05-20T17:06:50.222Z,4.80
2023-05-20T17:09:16.684Z,4.43
2023-05-20T17:11:43.028Z,4.53
2023-05-20T17:14:09.252Z,4.60
2023-05-20T17:16:35.691Z,4.47
2023-05-20T17:19:02.190Z,4.57
2023-05-20T17:21:28.620Z,4.60
2023-05-20T17:23:54.903Z,5.50
2023-05-20T17:26:22.186Z,5.68
2023-05-20T17:28:48.657Z,4.60
2023-05-20T17:31:15.153Z,5.07
2023-05-20T17:33:41.505Z,4.80
2023-05-20T17:36:07.888Z,4.85
2023-05-20T17:38:34.131Z,5.50
2023-05-20T17:41:00.524Z,5.22
2023-05-20T17:43:27.008Z,5.28
2023-05-20T17:45:53.375Z,5.55
2023-05-20T17:48:19.844Z,5.03
2023-05-20T17:50:46.207Z,5.97
2023-05-20T17:53:12.482Z,6.65
2023-05-20T17:55:39.623Z,5.15
2023-05-20T17:58:08.708Z,4.68
2023-05-20T18:00:41.787Z,4.97
2023-05-20T18:03:08.835Z,4.65
2023-05-20T18:05:35.473Z,7.22
2023-05-20T18:08:02.037Z,5.75
2023-05-20T18:10:28.655Z,5.80
2023-05-20T18:12:54.928Z,7.07
2023-05-20T18:15:24.367Z,7.60
2023-05-20T18:17:51.042Z,5.65
2023-05-20T18:20:17.453Z,5.43
2023-05-20T18:22:46.817Z,5.35
2023-05-20T18:25:13.896Z,4.68
2023-05-20T18:27:40.423Z,4.95
2023-05-20T18:30:06.921Z,5.25
2023-05-20T18:32:33.285Z,4.95
2023-05-20T18:34:59.751Z,4.72
2023-05-20T18:37:27.637Z,5.03
2023-05-20T18:39:54.322Z,5.30
2023-05-20T18:42:20.786Z,5.05
2023-05-20T18:44:47.039Z,5.28
2023-05-20T18:47:13.293Z,5.93
2023-05-20T18:49:39.575Z,5.00
2023-05-20T18:52:06.054Z,5.65
2023-05-20T18:54:32.317Z,5.13
2023-05-20T18:56:58.676Z,5.30
2023-05-20T18:59:25.349Z,4.72
2023-05-20T19:01:51.739Z,5.13
2023-05-20T19:04:17.989Z,5.38
2023-05-20T19:06:44.270Z,6.03
2023-05-20T19:09:10.527Z,5.70
2023-05-20T19:11:36.757Z,5.63
2023-05-20T19:14:04.412Z,5.43
2023-05-20T19:16:31.499Z,5.03
2023-05-20T19:18:57.840Z,5.47
2023-05-20T19:21:24.158Z,5.85
2023-05-20T19:23:50.446Z,5.45
2023-05-20T19:26:17.319Z,5.38
2023-05-20T19:28:43.724Z,5.60
2023-05-20T19:31:09.988Z,5.00
2023-05-20T19:33:36.666Z,5.38
2023-05-20T19:36:03.006Z,5.60
2023-05-20T19:38:29.275Z,5.97
2023-05-20T19:40:55.546Z,5.20
2023-05-20T19:43:21.891Z,5.50
2023-05-20T19:45:48.235Z,5.38
2023-05-20T19:48:14.485Z,5.95
2023-05-20T19:50:40.737Z,5.85
2023-05-20T19:53:07.691Z,5.57
2023-05-20T19:55:35.002Z,6.03
2023-05-20T19:58:01.752Z,5.63
2023-05-20T20:00:28.376Z,13.45
2023-05-20T20:02:56.723Z,9.18
2023-05-20T20:05:23.964Z,7.13
2023-05-20T20:07:50.364Z,8.25
2023-05-20T20:10:16.625Z,9.43
2023-05-20T20:12:42.876Z,8.45
2023-05-20T20:15:09.588Z,7.47
2023-05-20T20:17:37.060Z,7.50
2023-05-20T20:20:07.370Z,7.10
2023-05-20T20:22:33.626Z,6.90
2023-05-20T20:24:59.960Z,7.28
2023-05-20T20:27:26.302Z,7.70
2023-05-20T20:29:52.656Z,7.50
2023-05-20T20:32:18.998Z,8.30
2023-05-20T20:34:45.721Z,20.10
2023-05-20T20:37:14.624Z,8.68
2023-05-20T20:39:40.983Z,9.68
2023-05-20T20:42:07.232Z,7.90
2023-05-20T20:44:33.584Z,9.65
2023-05-20T20:46:59.935Z,8.65
2023-05-20T20:49:28.383Z,7.65
2023-05-20T20:51:55.000Z,10.50
2023-05-20T20:54:21.279Z,14.35
2023-05-20T20:56:47.574Z,11.70
2023-05-20T20:59:15.516Z,9.48
2023-05-20T21:01:44.595Z,8.88
2023-05-20T21:04:13.429Z,8.55
2023-05-20T21:06:45.735Z,8.73
2023-05-20T21:09:12.642Z,8.77
2023-05-20T21:11:42.002Z,9.55
2023-05-20T21:14:12.170Z,9.43
2023-05-20T21:16:38.691Z,8.80
2023-05-20T21:19:05.280Z,9.20
2023-05-20T21:21:31.684Z,9.55
2023-05-20T21:23:58.074Z,8.88
2023-05-20T21:26:25.264Z,9.32
2023-05-20T21:28:52.002Z,9.18
2023-05-20T21:31:18.340Z,9.85
2023-05-20T21:33:44.689Z,8.55
2023-05-20T21:36:10.913Z,8.88
2023-05-20T21:38:37.168Z,9.05
2023-05-20T21:41:03.455Z,9.23
2023-05-20T21:43:30.586Z,9.20
2023-05-20T21:45:56.875Z,10.15
2023-05-20T21:48:23.184Z,10.82
2023-05-20T21:50:49.448Z,9.98
2023-05-20T21:53:15.779Z,9.20
2023-05-20T21:55:42.037Z,9.65
2023-05-20T21:58:08.286Z,9.70
2023-05-20T22:00:34.935Z,9.52
2023-05-20T22:03:01.224Z,9.85
2023-05-20T22:05:27.528Z,9.10
2023-05-20T22:07:54.436Z,10.77
2023-05-20T22:10:23.114Z,10.23
2023-05-20T22:12:50.690Z,9.57
2023-05-20T22:15:17.361Z,9.27
2023-05-20T22:17:44.583Z,9.90
2023-05-20T22:20:11.344Z,10.48
2023-05-20T22:22:38.997Z,10.27
2023-05-20T22:25:06.201Z,9.80
2023-05-20T22:27:33.232Z,9.32
2023-05-20T22:29:59.491Z,9.90
2023-05-20T22:32:25.784Z,10.20
2023-05-20T22:34:58.248Z,10.15
2023-05-20T22:37:25.065Z,10.30
2023-05-20T22:39:51.364Z,10.55
2023-05-20T22:42:17.587Z,9.75
2023-05-20T22:44:43.837Z,9.63
2023-05-20T22:47:10.076Z,10.57
2023-05-20T22:49:38.577Z,9.70
2023-05-20T22:52:06.153Z,10.65
2023-05-20T22:54:32.398Z,9.38
2023-05-20T22:56:59.119Z,10.38
2023-05-20T22:59:26.004Z,10.07
2023-05-20T23:01:52.509Z,10.93
2023-05-20T23:04:19.079Z,11.10
2023-05-20T23:06:45.597Z,11.05
2023-05-20T23:09:12.372Z,11.20
2023-05-20T23:11:39.182Z,11.07
2023-05-20T23:14:05.613Z,11.38
2023-05-20T23:16:31.900Z,10.75
2023-05-20T23:18:58.220Z,10.90
2023-05-20T23:21:24.522Z,10.02
2023-05-20T23:23:50.906Z,10.57
2023-05-20T23:26:17.165Z,10.50
2023-05-20T23:28:43.393Z,10.43
2023-05-20T23:31:09.788Z,11.25
2023-05-20T23:33:36.138Z,10.82
2023-05-20T23:36:02.814Z,10.98
2023-05-20T23:38:30.502Z,10.45
2023-05-20T23:40:57.105Z,11.35
2023-05-20T23:43:23.360Z,11.00
2023-05-20T23:45:49.648Z,11.32
2023-05-20T23:48:17.761Z,11.15
2023-05-20T23:50:44.264Z,10.77
2023-05-20T23:53:10.584Z,11.70
2023-05-20T23:55:37.055Z,10.82
2023-05-20T23:58:03.477Z,11.23
